sensor_id;sensor_type;location;lat;lon;timestamp;temperature;humidity
17639;DHT22;8938;53.546;9.954;2023-08-01T00:01:03;20.70;99.90
17639;DHT22;8938;53.546;9.954;2023-08-01T00:03:28;20.70;99.90
17639;DHT22;8938;53.546;9.954;2023-08-01T00:05:54;20.60;99.90
17639;DHT22;8938;53.546;9.954;2023-08-01T00:08:21;20.50;99.90
17639;DHT22;8938;53.546;9.954;2023-08-01T00:10:47;20.50;99.90
17639;DHT22;8938;53.546;9.954;2023-08-01T00:13:12;20.50;99.90
17639;DHT22;8938;53.546;9.954;2023-08-01T00:15:38;20.50;99.90
17639;DHT22;8938;53.546;9.954;2023-08-01T00:18:04;20.50;99.90
17639;DHT22;8938;53.546;9.954;2023-08-01T00:20:29;20.60;99.90
17639;DHT22;8938;53.546;9.954;2023-08-01T00:22:55;20.60;99.90
17639;DHT22;8938;53.546;9.954;2023-08-01T00:25:21;20.50;99.90
17639;DHT22;8938;53.546;9.954;2023-08-01T00:27:46;20.60;99.90
17639;DHT22;8938;53.546;9.954;2023-08-01T00:30:12;20.70;99.90
17639;DHT22;8938;53.546;9.954;2023-08-01T00:32:38;20.70;99.90
17639;DHT22;8938;53.546;9.954;2023-08-01T00:35:04;20.70;99.90
17639;DHT22;8938;53.546;9.954;2023-08-01T00:37:29;20.60;99.90
17639;DHT22;8938;53.546;9.954;2023-08-01T00:39:55;20.50;99.90
17639;DHT22;8938;53.546;9.954;2023-08-01T00:42:21;20.50;99.90
17639;DHT22;8938;53.546;9.954;2023-08-01T00:44:46;20.50;99.90
17639;DHT22;8938;53.546;9.954;2023-08-01T00:47:14;20.60;99.90
17639;DHT22;8938;53.546;9.954;2023-08-01T00:49:40;20.60;99.90
17639;DHT22;8938;53.546;9.954;2023-08-01T00:52:06;20.50;99.90
17639;DHT22;8938;53.546;9.954;2023-08-01T00:54:32;20.60;99.90
17639;DHT22;8938;53.546;9.954;2023-08-01T00:57:03;20.60;99.90
17639;DHT22;8938;53.546;9.954;2023-08-01T00:59:28;20.60;99.90
17639;DHT22;8938;53.546;9.954;2023-08-01T01:01:54;20.60;99.90
17639;DHT22;8938;53.546;9.954;2023-08-01T01:04:20;20.60;99.90
17639;DHT22;8938;53.546;9.954;2023-08-01T01:06:49;20.60;99.90
17639;DHT22;8938;53.546;9.954;2023-08-01T01:09:17;20.50;99.90
17639;DHT22;8938;53.546;9.954;2023-08-01T01:11:44;20.50;99.90
17639;DHT22;8938;53.546;9.954;2023-08-01T01:14:09;20.50;99.90
17639;DHT22;8938;53.546;9.954;2023-08-01T01:16:35;20.50;99.90
17639;DHT22;8938;53.546;9.954;2023-08-01T01:19:01;20.50;99.90
17639;DHT22;8938;53.546;9.954;2023-08-01T01:24:43;20.60;99.90
17639;DHT22;8938;53.546;9.954;2023-08-01T01:27:09;20.50;99.90
17639;DHT22;8938;53.546;9.954;2023-08-01T01:29:35;20.50;99.90
17639;DHT22;8938;53.546;9.954;2023-08-01T01:32:03;20.50;99.90
17639;DHT22;8938;53.546;9.954;2023-08-01T01:34:29;20.50;99.90
17639;DHT22;8938;53.546;9.954;2023-08-01T01:36:54;20.50;99.90
17639;DHT22;8938;53.546;9.954;2023-08-01T01:39:20;20.40;99.90
17639;DHT22;8938;53.546;9.954;2023-08-01T01:41:46;20.40;99.90
17639;DHT22;8938;53.546;9.954;2023-08-01T01:44:11;20.50;99.90
17639;DHT22;8938;53.546;9.954;2023-08-01T01:46:37;20.60;99.90
17639;DHT22;8938;53.546;9.954;2023-08-01T01:49:03;20.50;99.90
17639;DHT22;8938;53.546;9.954;2023-08-01T01:51:29;20.40;99.90
17639;DHT22;8938;53.546;9.954;2023-08-01T01:53:55;20.50;99.90
17639;DHT22;8938;53.546;9.954;2023-08-01T01:56:20;20.50;99.90
17639;DHT22;8938;53.546;9.954;2023-08-01T01:58:46;20.50;99.90
17639;DHT22;8938;53.546;9.954;2023-08-01T02:01:11;20.50;99.90
17639;DHT22;8938;53.546;9.954;2023-08-01T02:03:37;20.60;99.90
17639;DHT22;8938;53.546;9.954;2023-08-01T02:06:03;20.60;99.90
17639;DHT22;8938;53.546;9.954;2023-08-01T02:08:29;20.60;99.90
17639;DHT22;8938;53.546;9.954;2023-08-01T02:10:55;20.60;99.90
17639;DHT22;8938;53.546;9.954;2023-08-01T02:13:24;20.50;99.90
17639;DHT22;8938;53.546;9.954;2023-08-01T02:15:49;20.50;99.90
17639;DHT22;8938;53.546;9.954;2023-08-01T02:18:15;20.50;99.90
17639;DHT22;8938;53.546;9.954;2023-08-01T02:20:40;20.50;99.90
17639;DHT22;8938;53.546;9.954;2023-08-01T02:23:06;20.50;99.90
17639;DHT22;8938;53.546;9.954;2023-08-01T02:25:31;20.50;99.90
17639;DHT22;8938;53.546;9.954;2023-08-01T02:27:57;20.50;99.90
17639;DHT22;8938;53.546;9.954;2023-08-01T02:30:22;20.40;99.90
17639;DHT22;8938;53.546;9.954;2023-08-01T02:32:48;20.50;99.90
17639;DHT22;8938;53.546;9.954;2023-08-01T02:35:13;20.50;99.90
17639;DHT22;8938;53.546;9.954;2023-08-01T02:37:39;20.60;99.90
17639;DHT22;8938;53.546;9.954;2023-08-01T02:40:07;20.60;99.90
17639;DHT22;8938;53.546;9.954;2023-08-01T02:42:33;20.60;99.90
17639;DHT22;8938;53.546;9.954;2023-08-01T02:44:59;20.50;99.90
17639;DHT22;8938;53.546;9.954;2023-08-01T02:47:24;20.40;99.90
17639;DHT22;8938;53.546;9.954;2023-08-01T02:49:50;20.40;99.90
17639;DHT22;8938;53.546;9.954;2023-08-01T02:52:15;20.50;99.90
17639;DHT22;8938;53.546;9.954;2023-08-01T02:54:41;20.40;99.90
17639;DHT22;8938;53.546;9.954;2023-08-01T02:57:06;20.40;99.90
17639;DHT22;8938;53.546;9.954;2023-08-01T02:59:32;20.50;99.90
17639;DHT22;8938;53.546;9.954;2023-08-01T03:01:58;20.60;99.90
17639;DHT22;8938;53.546;9.954;2023-08-01T03:04:24;20.60;99.90
17639;DHT22;8938;53.546;9.954;2023-08-01T03:06:50;20.60;99.90
17639;DHT22;8938;53.546;9.954;2023-08-01T03:09:15;20.70;99.90
17639;DHT22;8938;53.546;9.954;2023-08-01T03:11:41;20.60;99.90
17639;DHT22;8938;53.546;9.954;2023-08-01T03:14:07;20.60;99.90
17639;DHT22;8938;53.546;9.954;2023-08-01T03:16:33;20.60;99.90
17639;DHT22;8938;53.546;9.954;2023-08-01T03:18:58;20.60;99.90
17639;DHT22;8938;53.546;9.954;2023-08-01T03:21:32;20.60;99.90
17639;DHT22;8938;53.546;9.954;2023-08-01T03:23:58;20.60;99.90
17639;DHT22;8938;53.546;9.954;2023-08-01T03:26:24;20.60;99.90
17639;DHT22;8938;53.546;9.954;2023-08-01T03:28:49;20.60;99.90
17639;DHT22;8938;53.546;9.954;2023-08-01T03:31:15;20.60;99.90
17639;DHT22;8938;53.546;9.954;2023-08-01T03:33:40;20.60;99.90
17639;DHT22;8938;53.546;9.954;2023-08-01T03:36:06;20.60;99.90
17639;DHT22;8938;53.546;9.954;2023-08-01T03:38:31;20.60;99.90
17639;DHT22;8938;53.546;9.954;2023-08-01T03:40:57;20.60;99.90
17639;DHT22;8938;53.546;9.954;2023-08-01T03:43:23;20.60;99.90
17639;DHT22;8938;53.546;9.954;2023-08-01T03:45:49;20.60;99.90
17639;DHT22;8938;53.546;9.954;2023-08-01T03:48:15;20.60;99.90
17639;DHT22;8938;53.546;9.954;2023-08-01T03:50:41;20.60;99.90
17639;DHT22;8938;53.546;9.954;2023-08-01T03:53:06;20.60;99.90
17639;DHT22;8938;53.546;9.954;2023-08-01T03:55:32;20.60;99.90
17639;DHT22;8938;53.546;9.954;2023-08-01T03:57:58;20.70;99.90
17639;DHT22;8938;53.546;9.954;2023-08-01T04:00:24;20.60;99.90
17639;DHT22;8938;53.546;9.954;2023-08-01T04:02:49;20.60;99.90
17639;DHT22;8938;53.546;9.954;2023-08-01T04:05:15;20.60;99.90
17639;DHT22;8938;53.546;9.954;2023-08-01T04:07:41;20.60;99.90
17639;DHT22;8938;53.546;9.954;2023-08-01T04:10:07;20.80;99.90
17639;DHT22;8938;53.546;9.954;2023-08-01T04:12:33;20.60;99.90
17639;DHT22;8938;53.546;9.954;2023-08-01T04:14:59;20.60;99.90
17639;DHT22;8938;53.546;9.954;2023-08-01T04:17:25;20.60;99.90
17639;DHT22;8938;53.546;9.954;2023-08-01T04:19:51;20.70;99.90
17639;DHT22;8938;53.546;9.954;2023-08-01T04:22:16;20.70;99.90
17639;DHT22;8938;53.546;9.954;2023-08-01T04:24:42;20.60;99.90
17639;DHT22;8938;53.546;9.954;2023-08-01T04:27:08;20.60;99.90
17639;DHT22;8938;53.546;9.954;2023-08-01T04:29:33;20.50;99.90
17639;DHT22;8938;53.546;9.954;2023-08-01T04:31:59;20.60;99.90
17639;DHT22;8938;53.546;9.954;2023-08-01T04:34:25;20.50;99.90
17639;DHT22;8938;53.546;9.954;2023-08-01T04:36:50;20.40;99.90
17639;DHT22;8938;53.546;9.954;2023-08-01T04:39:16;20.30;99.90
17639;DHT22;8938;53.546;9.954;2023-08-01T04:41:41;20.40;99.90
17639;DHT22;8938;53.546;9.954;2023-08-01T04:44:07;20.40;99.90
17639;DHT22;8938;53.546;9.954;2023-08-01T04:46:33;20.50;99.90
17639;DHT22;8938;53.546;9.954;2023-08-01T04:48:58;20.50;99.90
17639;DHT22;8938;53.546;9.954;2023-08-01T04:51:24;20.50;99.90
17639;DHT22;8938;53.546;9.954;2023-08-01T04:53:50;20.60;99.90
17639;DHT22;8938;53.546;9.954;2023-08-01T04:56:15;20.50;99.90
17639;DHT22;8938;53.546;9.954;2023-08-01T04:58:41;20.70;99.90
17639;DHT22;8938;53.546;9.954;2023-08-01T05:01:06;20.60;99.90
17639;DHT22;8938;53.546;9.954;2023-08-01T05:03:32;20.70;99.90
17639;DHT22;8938;53.546;9.954;2023-08-01T05:05:57;20.80;99.90
17639;DHT22;8938;53.546;9.954;2023-08-01T05:08:23;20.90;99.90
17639;DHT22;8938;53.546;9.954;2023-08-01T05:10:49;20.90;99.90
17639;DHT22;8938;53.546;9.954;2023-08-01T05:13:14;20.90;99.90
17639;DHT22;8938;53.546;9.954;2023-08-01T05:15:40;20.90;99.90
17639;DHT22;8938;53.546;9.954;2023-08-01T05:18:05;21.00;99.90
17639;DHT22;8938;53.546;9.954;2023-08-01T05:20:31;20.90;99.90
17639;DHT22;8938;53.546;9.954;2023-08-01T05:22:57;20.90;99.90
17639;DHT22;8938;53.546;9.954;2023-08-01T05:25:24;20.90;99.90
17639;DHT22;8938;53.546;9.954;2023-08-01T05:27:50;21.00;99.90
17639;DHT22;8938;53.546;9.954;2023-08-01T05:30:15;20.80;99.90
17639;DHT22;8938;53.546;9.954;2023-08-01T05:32:41;20.70;99.90
17639;DHT22;8938;53.546;9.954;2023-08-01T05:35:09;20.70;99.90
17639;DHT22;8938;53.546;9.954;2023-08-01T05:37:34;20.70;99.90
17639;DHT22;8938;53.546;9.954;2023-08-01T05:40:01;20.70;99.90
17639;DHT22;8938;53.546;9.954;2023-08-01T05:42:28;20.80;99.90
17639;DHT22;8938;53.546;9.954;2023-08-01T05:44:53;20.80;99.90
17639;DHT22;8938;53.546;9.954;2023-08-01T05:47:19;20.90;99.90
17639;DHT22;8938;53.546;9.954;2023-08-01T05:49:44;20.90;99.90
17639;DHT22;8938;53.546;9.954;2023-08-01T05:52:10;20.90;99.90
17639;DHT22;8938;53.546;9.954;2023-08-01T05:54:35;20.80;99.90
17639;DHT22;8938;53.546;9.954;2023-08-01T05:57:01;20.70;99.90
17639;DHT22;8938;53.546;9.954;2023-08-01T05:59:26;20.60;99.90
17639;DHT22;8938;53.546;9.954;2023-08-01T06:01:52;20.60;99.90
17639;DHT22;8938;53.546;9.954;2023-08-01T06:04:17;20.60;99.90
17639;DHT22;8938;53.546;9.954;2023-08-01T06:06:43;20.70;99.90
17639;DHT22;8938;53.546;9.954;2023-08-01T06:09:08;20.80;99.90
17639;DHT22;8938;53.546;9.954;2023-08-01T06:11:34;21.00;99.90
17639;DHT22;8938;53.546;9.954;2023-08-01T06:14:00;21.00;99.90
17639;DHT22;8938;53.546;9.954;2023-08-01T06:16:25;20.90;99.90
17639;DHT22;8938;53.546;9.954;2023-08-01T06:18:51;21.00;99.90
17639;DHT22;8938;53.546;9.954;2023-08-01T06:21:17;21.10;99.90
17639;DHT22;8938;53.546;9.954;2023-08-01T06:23:42;21.20;99.90
17639;DHT22;8938;53.546;9.954;2023-08-01T06:26:08;21.20;99.90
17639;DHT22;8938;53.546;9.954;2023-08-01T06:28:33;21.10;99.90
17639;DHT22;8938;53.546;9.954;2023-08-01T06:30:59;21.10;99.90
17639;DHT22;8938;53.546;9.954;2023-08-01T06:33:24;21.20;99.90
17639;DHT22;8938;53.546;9.954;2023-08-01T06:35:50;21.20;99.90
17639;DHT22;8938;53.546;9.954;2023-08-01T06:38:15;21.10;99.90
17639;DHT22;8938;53.546;9.954;2023-08-01T06:40:41;21.10;99.90
17639;DHT22;8938;53.546;9.954;2023-08-01T06:43:06;21.20;99.90
17639;DHT22;8938;53.546;9.954;2023-08-01T06:45:32;21.10;99.90
17639;DHT22;8938;53.546;9.954;2023-08-01T06:47:57;21.00;99.90
17639;DHT22;8938;53.546;9.954;2023-08-01T06:50:23;21.00;99.90
17639;DHT22;8938;53.546;9.954;2023-08-01T06:52:48;21.10;99.90
17639;DHT22;8938;53.546;9.954;2023-08-01T06:55:14;21.20;99.90
17639;DHT22;8938;53.546;9.954;2023-08-01T06:57:40;21.20;99.90
17639;DHT22;8938;53.546;9.954;2023-08-01T07:00:07;21.20;99.90
17639;DHT22;8938;53.546;9.954;2023-08-01T07:02:34;21.20;99.90
17639;DHT22;8938;53.546;9.954;2023-08-01T07:04:59;21.20;99.90
17639;DHT22;8938;53.546;9.954;2023-08-01T07:07:25;21.30;99.90
17639;DHT22;8938;53.546;9.954;2023-08-01T07:09:50;21.30;99.90
17639;DHT22;8938;53.546;9.954;2023-08-01T07:12:16;21.40;99.90
17639;DHT22;8938;53.546;9.954;2023-08-01T07:14:41;21.50;99.90
17639;DHT22;8938;53.546;9.954;2023-08-01T07:17:08;21.50;99.90
17639;DHT22;8938;53.546;9.954;2023-08-01T07:19:33;21.50;99.90
17639;DHT22;8938;53.546;9.954;2023-08-01T07:21:59;21.40;99.90
17639;DHT22;8938;53.546;9.954;2023-08-01T07:24:24;21.40;99.90
17639;DHT22;8938;53.546;9.954;2023-08-01T07:26:50;21.50;99.90
17639;DHT22;8938;53.546;9.954;2023-08-01T07:29:15;21.60;99.90
17639;DHT22;8938;53.546;9.954;2023-08-01T07:31:41;21.60;99.90
17639;DHT22;8938;53.546;9.954;2023-08-01T07:34:07;21.60;99.90
17639;DHT22;8938;53.546;9.954;2023-08-01T07:36:33;21.70;99.90
17639;DHT22;8938;53.546;9.954;2023-08-01T07:38:58;21.70;99.90
17639;DHT22;8938;53.546;9.954;2023-08-01T07:41:24;21.80;99.90
17639;DHT22;8938;53.546;9.954;2023-08-01T07:43:49;21.80;99.90
17639;DHT22;8938;53.546;9.954;2023-08-01T07:46:15;22.00;99.90
17639;DHT22;8938;53.546;9.954;2023-08-01T07:48:40;22.10;99.90
17639;DHT22;8938;53.546;9.954;2023-08-01T07:51:06;22.00;99.90
17639;DHT22;8938;53.546;9.954;2023-08-01T07:53:33;22.00;99.90
17639;DHT22;8938;53.546;9.954;2023-08-01T07:55:59;22.00;99.90
17639;DHT22;8938;53.546;9.954;2023-08-01T07:58:27;22.00;99.90
17639;DHT22;8938;53.546;9.954;2023-08-01T08:00:53;22.10;99.90
17639;DHT22;8938;53.546;9.954;2023-08-01T08:03:19;22.30;99.90
17639;DHT22;8938;53.546;9.954;2023-08-01T08:05:49;22.40;99.90
17639;DHT22;8938;53.546;9.954;2023-08-01T08:08:15;22.60;99.90
17639;DHT22;8938;53.546;9.954;2023-08-01T08:10:40;22.60;99.90
17639;DHT22;8938;53.546;9.954;2023-08-01T08:13:06;22.60;99.90
17639;DHT22;8938;53.546;9.954;2023-08-01T08:15:31;22.50;99.90
17639;DHT22;8938;53.546;9.954;2023-08-01T08:18:00;22.50;99.90
17639;DHT22;8938;53.546;9.954;2023-08-01T08:20:26;22.40;99.90
17639;DHT22;8938;53.546;9.954;2023-08-01T08:22:52;22.40;99.90
17639;DHT22;8938;53.546;9.954;2023-08-01T08:25:17;22.40;99.90
17639;DHT22;8938;53.546;9.954;2023-08-01T08:27:43;22.50;99.90
17639;DHT22;8938;53.546;9.954;2023-08-01T08:30:09;22.50;99.90
17639;DHT22;8938;53.546;9.954;2023-08-01T08:32:35;22.60;99.90
17639;DHT22;8938;53.546;9.954;2023-08-01T08:35:00;22.70;99.90
17639;DHT22;8938;53.546;9.954;2023-08-01T08:37:26;22.60;99.90
17639;DHT22;8938;53.546;9.954;2023-08-01T08:39:51;22.60;99.90
17639;DHT22;8938;53.546;9.954;2023-08-01T08:42:20;22.70;99.90
17639;DHT22;8938;53.546;9.954;2023-08-01T08:44:50;22.80;99.90
17639;DHT22;8938;53.546;9.954;2023-08-01T08:47:25;22.70;99.90
17639;DHT22;8938;53.546;9.954;2023-08-01T08:49:52;22.80;99.90
17639;DHT22;8938;53.546;9.954;2023-08-01T08:52:20;22.80;99.90
17639;DHT22;8938;53.546;9.954;2023-08-01T08:54:46;23.00;99.90
17639;DHT22;8938;53.546;9.954;2023-08-01T08:57:13;23.30;99.90
17639;DHT22;8938;53.546;9.954;2023-08-01T08:59:39;23.40;99.90
17639;DHT22;8938;53.546;9.954;2023-08-01T09:02:05;23.30;99.90
17639;DHT22;8938;53.546;9.954;2023-08-01T09:04:31;23.20;99.90
17639;DHT22;8938;53.546;9.954;2023-08-01T09:07:05;23.10;99.90
17639;DHT22;8938;53.546;9.954;2023-08-01T09:09:33;22.90;99.90
17639;DHT22;8938;53.546;9.954;2023-08-01T09:11:59;22.50;99.90
17639;DHT22;8938;53.546;9.954;2023-08-01T09:14:25;22.10;99.90
17639;DHT22;8938;53.546;9.954;2023-08-01T09:16:50;21.90;99.90
17639;DHT22;8938;53.546;9.954;2023-08-01T09:19:24;21.80;99.90
17639;DHT22;8938;53.546;9.954;2023-08-01T09:21:50;21.90;99.90
17639;DHT22;8938;53.546;9.954;2023-08-01T09:24:20;21.90;99.90
17639;DHT22;8938;53.546;9.954;2023-08-01T09:26:48;21.80;99.90
17639;DHT22;8938;53.546;9.954;2023-08-01T09:29:16;21.70;99.90
17639;DHT22;8938;53.546;9.954;2023-08-01T09:31:43;21.70;99.90
17639;DHT22;8938;53.546;9.954;2023-08-01T09:34:23;21.60;99.90
17639;DHT22;8938;53.546;9.954;2023-08-01T09:36:50;21.70;99.90
17639;DHT22;8938;53.546;9.954;2023-08-01T09:39:20;21.90;99.90
17639;DHT22;8938;53.546;9.954;2023-08-01T09:41:54;23.00;99.90
17639;DHT22;8938;53.546;9.954;2023-08-01T09:44:20;24.90;99.90
17639;DHT22;8938;53.546;9.954;2023-08-01T09:47:04;26.00;99.90
17639;DHT22;8938;53.546;9.954;2023-08-01T09:49:32;26.90;99.90
17639;DHT22;8938;53.546;9.954;2023-08-01T09:51:58;26.90;99.90
17639;DHT22;8938;53.546;9.954;2023-08-01T09:54:24;26.60;99.90
17639;DHT22;8938;53.546;9.954;2023-08-01T09:56:52;26.30;99.90
17639;DHT22;8938;53.546;9.954;2023-08-01T09:59:20;25.70;99.90
17639;DHT22;8938;53.546;9.954;2023-08-01T10:01:48;25.20;99.90
17639;DHT22;8938;53.546;9.954;2023-08-01T10:04:20;25.00;99.90
17639;DHT22;8938;53.546;9.954;2023-08-01T10:06:49;25.20;99.90
17639;DHT22;8938;53.546;9.954;2023-08-01T10:09:17;26.10;99.90
17639;DHT22;8938;53.546;9.954;2023-08-01T10:11:43;27.40;99.90
17639;DHT22;8938;53.546;9.954;2023-08-01T10:14:09;28.40;99.90
17639;DHT22;8938;53.546;9.954;2023-08-01T10:16:36;28.50;99.90
17639;DHT22;8938;53.546;9.954;2023-08-01T10:19:02;28.40;99.90
17639;DHT22;8938;53.546;9.954;2023-08-01T10:21:28;27.60;99.90
17639;DHT22;8938;53.546;9.954;2023-08-01T10:23:55;26.90;99.90
17639;DHT22;8938;53.546;9.954;2023-08-01T10:26:23;26.20;99.90
17639;DHT22;8938;53.546;9.954;2023-08-01T10:28:50;25.90;99.90
17639;DHT22;8938;53.546;9.954;2023-08-01T10:31:18;26.90;99.90
17639;DHT22;8938;53.546;9.954;2023-08-01T10:33:48;27.40;99.90
17639;DHT22;8938;53.546;9.954;2023-08-01T10:36:15;26.90;99.90
17639;DHT22;8938;53.546;9.954;2023-08-01T10:38:57;26.20;99.90
17639;DHT22;8938;53.546;9.954;2023-08-01T10:41:30;25.50;99.90
17639;DHT22;8938;53.546;9.954;2023-08-01T10:44:10;25.80;99.90
17639;DHT22;8938;53.546;9.954;2023-08-01T10:46:50;26.10;99.90
17639;DHT22;8938;53.546;9.954;2023-08-01T10:49:18;25.90;99.90
17639;DHT22;8938;53.546;9.954;2023-08-01T10:51:44;25.60;99.90
17639;DHT22;8938;53.546;9.954;2023-08-01T10:54:23;25.10;99.90
17639;DHT22;8938;53.546;9.954;2023-08-01T10:56:51;24.70;99.90
17639;DHT22;8938;53.546;9.954;2023-08-01T10:59:17;24.40;99.90
17639;DHT22;8938;53.546;9.954;2023-08-01T11:01:51;24.20;99.90
17639;DHT22;8938;53.546;9.954;2023-08-01T11:04:18;23.70;99.90
17639;DHT22;8938;53.546;9.954;2023-08-01T11:06:45;23.30;99.90
17639;DHT22;8938;53.546;9.954;2023-08-01T11:09:19;22.90;99.90
17639;DHT22;8938;53.546;9.954;2023-08-01T11:11:48;22.20;99.90
17639;DHT22;8938;53.546;9.954;2023-08-01T11:14:14;21.20;99.90
17639;DHT22;8938;53.546;9.954;2023-08-01T11:16:40;20.60;99.90
17639;DHT22;8938;53.546;9.954;2023-08-01T11:19:06;20.10;99.90
17639;DHT22;8938;53.546;9.954;2023-08-01T11:21:42;19.50;99.90
17639;DHT22;8938;53.546;9.954;2023-08-01T11:24:08;19.10;99.90
17639;DHT22;8938;53.546;9.954;2023-08-01T11:26:34;18.90;99.90
17639;DHT22;8938;53.546;9.954;2023-08-01T11:29:02;18.70;99.90
17639;DHT22;8938;53.546;9.954;2023-08-01T11:31:30;18.70;99.90
17639;DHT22;8938;53.546;9.954;2023-08-01T11:33:59;18.80;99.90
17639;DHT22;8938;53.546;9.954;2023-08-01T11:36:26;19.00;99.90
17639;DHT22;8938;53.546;9.954;2023-08-01T11:38:53;19.30;99.90
17639;DHT22;8938;53.546;9.954;2023-08-01T11:41:19;19.70;99.90
17639;DHT22;8938;53.546;9.954;2023-08-01T11:43:45;20.00;99.90
17639;DHT22;8938;53.546;9.954;2023-08-01T11:46:11;20.20;99.90
17639;DHT22;8938;53.546;9.954;2023-08-01T11:48:37;20.40;99.90
17639;DHT22;8938;53.546;9.954;2023-08-01T11:51:03;20.50;99.90
17639;DHT22;8938;53.546;9.954;2023-08-01T11:53:29;20.50;99.90
17639;DHT22;8938;53.546;9.954;2023-08-01T11:55:55;20.70;99.90
17639;DHT22;8938;53.546;9.954;2023-08-01T11:58:37;20.90;99.90
17639;DHT22;8938;53.546;9.954;2023-08-01T12:01:10;21.30;99.90
17639;DHT22;8938;53.546;9.954;2023-08-01T12:06:11;22.40;99.90
17639;DHT22;8938;53.546;9.954;2023-08-01T12:08:41;22.80;99.90
17639;DHT22;8938;53.546;9.954;2023-08-01T12:11:17;22.90;99.90
17639;DHT22;8938;53.546;9.954;2023-08-01T12:13:44;22.80;99.90
17639;DHT22;8938;53.546;9.954;2023-08-01T12:16:10;22.60;99.90
17639;DHT22;8938;53.546;9.954;2023-08-01T12:18:35;22.50;99.90
17639;DHT22;8938;53.546;9.954;2023-08-01T12:21:02;22.40;99.90
17639;DHT22;8938;53.546;9.954;2023-08-01T12:23:31;22.40;99.90
17639;DHT22;8938;53.546;9.954;2023-08-01T12:25:56;22.50;99.90
17639;DHT22;8938;53.546;9.954;2023-08-01T12:28:22;22.80;99.90
17639;DHT22;8938;53.546;9.954;2023-08-01T12:30:47;22.90;99.90
17639;DHT22;8938;53.546;9.954;2023-08-01T12:33:13;22.70;99.90
17639;DHT22;8938;53.546;9.954;2023-08-01T12:35:40;22.40;99.90
17639;DHT22;8938;53.546;9.954;2023-08-01T12:38:06;22.30;99.90
17639;DHT22;8938;53.546;9.954;2023-08-01T12:40:32;22.20;99.90
17639;DHT22;8938;53.546;9.954;2023-08-01T12:42:57;22.10;99.90
17639;DHT22;8938;53.546;9.954;2023-08-01T12:45:23;21.90;99.90
17639;DHT22;8938;53.546;9.954;2023-08-01T12:47:49;21.80;99.90
17639;DHT22;8938;53.546;9.954;2023-08-01T12:50:14;21.60;99.90
17639;DHT22;8938;53.546;9.954;2023-08-01T12:52:40;21.40;99.90
17639;DHT22;8938;53.546;9.954;2023-08-01T12:55:06;21.10;99.90
17639;DHT22;8938;53.546;9.954;2023-08-01T12:57:32;21.00;99.90
17639;DHT22;8938;53.546;9.954;2023-08-01T12:59:58;21.10;99.90
17639;DHT22;8938;53.546;9.954;2023-08-01T13:02:23;21.40;99.90
17639;DHT22;8938;53.546;9.954;2023-08-01T13:04:49;21.80;99.90
17639;DHT22;8938;53.546;9.954;2023-08-01T13:07:14;22.00;99.90
17639;DHT22;8938;53.546;9.954;2023-08-01T13:09:40;22.10;99.90
17639;DHT22;8938;53.546;9.954;2023-08-01T13:12:06;22.30;99.90
17639;DHT22;8938;53.546;9.954;2023-08-01T13:14:32;22.30;99.90
17639;DHT22;8938;53.546;9.954;2023-08-01T13:16:57;22.40;99.90
17639;DHT22;8938;53.546;9.954;2023-08-01T13:19:24;22.50;99.90
17639;DHT22;8938;53.546;9.954;2023-08-01T13:21:50;22.80;99.90
17639;DHT22;8938;53.546;9.954;2023-08-01T13:24:16;23.20;99.90
17639;DHT22;8938;53.546;9.954;2023-08-01T13:26:41;23.20;99.90
17639;DHT22;8938;53.546;9.954;2023-08-01T13:29:07;23.10;99.90
17639;DHT22;8938;53.546;9.954;2023-08-01T13:31:32;23.00;99.90
17639;DHT22;8938;53.546;9.954;2023-08-01T13:33:58;22.80;99.90
17639;DHT22;8938;53.546;9.954;2023-08-01T13:36:24;22.70;99.90
17639;DHT22;8938;53.546;9.954;2023-08-01T13:38:50;22.70;99.90
17639;DHT22;8938;53.546;9.954;2023-08-01T13:41:15;22.60;99.90
17639;DHT22;8938;53.546;9.954;2023-08-01T13:43:41;22.60;99.90
17639;DHT22;8938;53.546;9.954;2023-08-01T13:46:16;22.40;99.90
17639;DHT22;8938;53.546;9.954;2023-08-01T13:48:44;22.10;99.90
17639;DHT22;8938;53.546;9.954;2023-08-01T13:51:10;22.30;99.90
17639;DHT22;8938;53.546;9.954;2023-08-01T13:53:36;22.60;99.90
17639;DHT22;8938;53.546;9.954;2023-08-01T13:56:06;22.90;99.90
17639;DHT22;8938;53.546;9.954;2023-08-01T13:58:32;23.20;99.90
17639;DHT22;8938;53.546;9.954;2023-08-01T14:01:05;23.30;99.90
17639;DHT22;8938;53.546;9.954;2023-08-01T14:03:36;23.10;99.90
17639;DHT22;8938;53.546;9.954;2023-08-01T14:06:10;23.00;99.90
17639;DHT22;8938;53.546;9.954;2023-08-01T14:08:37;22.70;99.90
17639;DHT22;8938;53.546;9.954;2023-08-01T14:11:04;22.60;99.90
17639;DHT22;8938;53.546;9.954;2023-08-01T14:13:29;22.40;99.90
17639;DHT22;8938;53.546;9.954;2023-08-01T14:15:55;22.10;99.90
17639;DHT22;8938;53.546;9.954;2023-08-01T14:18:20;21.50;99.90
17639;DHT22;8938;53.546;9.954;2023-08-01T14:20:46;21.10;99.90
17639;DHT22;8938;53.546;9.954;2023-08-01T14:23:12;20.90;99.90
17639;DHT22;8938;53.546;9.954;2023-08-01T14:25:37;20.70;99.90
17639;DHT22;8938;53.546;9.954;2023-08-01T14:28:03;20.70;99.90
17639;DHT22;8938;53.546;9.954;2023-08-01T14:30:29;20.80;99.90
17639;DHT22;8938;53.546;9.954;2023-08-01T14:33:05;20.80;99.90
17639;DHT22;8938;53.546;9.954;2023-08-01T14:35:32;21.10;99.90
17639;DHT22;8938;53.546;9.954;2023-08-01T14:37:58;21.40;99.90
17639;DHT22;8938;53.546;9.954;2023-08-01T14:40:24;21.70;99.90
17639;DHT22;8938;53.546;9.954;2023-08-01T14:42:51;21.90;99.90
17639;DHT22;8938;53.546;9.954;2023-08-01T14:45:16;21.90;99.90
17639;DHT22;8938;53.546;9.954;2023-08-01T14:47:42;21.90;99.90
17639;DHT22;8938;53.546;9.954;2023-08-01T14:50:12;21.80;99.90
17639;DHT22;8938;53.546;9.954;2023-08-01T14:52:38;21.70;99.90
17639;DHT22;8938;53.546;9.954;2023-08-01T14:55:03;21.70;99.90
17639;DHT22;8938;53.546;9.954;2023-08-01T14:57:29;21.80;99.90
17639;DHT22;8938;53.546;9.954;2023-08-01T14:59:55;22.00;99.90
17639;DHT22;8938;53.546;9.954;2023-08-01T15:02:21;22.20;99.90
17639;DHT22;8938;53.546;9.954;2023-08-01T15:04:50;22.30;99.90
17639;DHT22;8938;53.546;9.954;2023-08-01T15:07:16;22.50;99.90
17639;DHT22;8938;53.546;9.954;2023-08-01T15:09:44;22.70;99.90
17639;DHT22;8938;53.546;9.954;2023-08-01T15:12:11;22.70;99.90
17639;DHT22;8938;53.546;9.954;2023-08-01T15:14:37;22.70;99.90
17639;DHT22;8938;53.546;9.954;2023-08-01T15:17:03;22.60;99.90
17639;DHT22;8938;53.546;9.954;2023-08-01T15:19:29;22.40;99.90
17639;DHT22;8938;53.546;9.954;2023-08-01T15:21:55;22.30;99.90
17639;DHT22;8938;53.546;9.954;2023-08-01T15:24:20;22.20;99.90
17639;DHT22;8938;53.546;9.954;2023-08-01T15:26:46;22.10;99.90
17639;DHT22;8938;53.546;9.954;2023-08-01T15:29:13;22.20;99.90
17639;DHT22;8938;53.546;9.954;2023-08-01T15:31:39;22.10;99.90
17639;DHT22;8938;53.546;9.954;2023-08-01T15:34:05;22.10;99.90
17639;DHT22;8938;53.546;9.954;2023-08-01T15:36:30;22.10;99.90
17639;DHT22;8938;53.546;9.954;2023-08-01T15:38:56;22.10;99.90
17639;DHT22;8938;53.546;9.954;2023-08-01T15:41:23;22.00;99.90
17639;DHT22;8938;53.546;9.954;2023-08-01T15:43:49;21.90;99.90
17639;DHT22;8938;53.546;9.954;2023-08-01T15:46:14;21.80;99.90